Station: Jervis Bay Airfield

  Atmospheric Gas Attenuation - ITU Rec 676-11   --------------- db/100km ---------------
Date Time Temp RH % AH g/m3 Dew Point Wind Direction Speed kph Gust kph Barometer mB Rainfall Since 9am 24GHz 47GHz 76GHz 122GHz 134GHz 241GHz
23 09:10 12.7 62 6.9 5.6 11 13 1026.4 0 16.0 24.0 34.2 89.3 78.6 268.9
23 09:00 12.4 63 6.88 5.6 11 15 1026.4 0 16.0 24.0 34.2 89.4 78.7 269.0
23 08:50 11.9 64 6.78 5.3 11 13 1026.3 0 15.8 24.0 34.1 88.9 77.9 266.2
23 08:40 11.8 67 7.05 5.9 7 9 1026.3 0 16.4 24.5 35.2 91.8 81.4 278.7
23 08:30 11.3 70 7.14 6 9 11 1026.2 0 16.6 24.7 35.7 93.3 83.1 284.5
23 08:20 10.8 71 7.02 5.8 9 11 1026.1 0 16.3 24.7 35.5 92.7 82.1 280.8
23 08:10 10.5 74 7.18 6.1 9 9 1026 0 16.7 25.0 36.2 94.7 84.5 289.2
23 08:00 10 73 6.86 5.4 11 13 1025.9 0 16.0 24.6 35.2 91.9 80.8 276.2
23 07:50 9.6 73 6.69 5 11 13 1025.9 0 15.7 24.5 34.7 90.5 79.0 269.8
23 07:40 9.1 75 6.66 4.9 11 13 1025.8 0 15.6 24.6 34.8 90.8 79.1 270.1
23 07:30 8.5 78 6.66 4.9 13 13 1025.7 0 15.7 24.7 35.0 91.4 79.7 272.1
23 07:20 8 80 6.62 4.8 13 13 1025.7 0 15.6 24.8 35.1 91.6 79.7 272.0
23 07:10 7.3 86 6.8 5.1 9 11 1025.6 0 16.0 25.3 36.1 94.4 82.8 282.9
23 07:00 5.9 88 6.35 4.1 7 11 1025.6 0 15.1 24.9 34.9 91.1 78.2 266.4
23 06:50 5.8 86 6.16 3.6 7 7 1025.5 0 14.7 24.6 34.2 89.1 75.7 257.6
23 06:40 6.7 88 6.69 4.9 2 6 1025.4 0 15.8 25.3 35.9 93.9 82.0 279.8
23 06:30 6.5 87 6.53 4.5 6 6 1025.3 0 15.5 25.0 35.4 92.3 80.0 272.8
23 06:20 5.8 86 6.16 3.6 7 7 1025.2 0 14.7 24.6 34.1 89.1 75.7 257.6
23 06:10 6.8 85 6.5 4.5 0 0 1025.1 0 15.4 24.9 35.1 91.6 79.3 270.3
23 06:00 6.2 87 6.4 4.2 6 7 1025.1 0 15.2 24.9 34.9 91.2 78.5 267.6
23 05:50 6.1 87 6.36 4.1 6 6 1024.9 0 15.1 24.9 34.8 90.9 78.1 266.0
23 05:40 5.5 89 6.25 3.8 7 9 1024.7 0 14.9 24.8 34.6 90.4 77.1 262.7
23 05:30 5.1 88 6.02 3.3 0 0 1024.6 0 14.4 24.6 33.8 88.3 74.4 253.1
23 05:20 5.6 87 6.15 3.6 0 0 1024.5 0 14.7 24.6 34.2 89.1 75.7 257.6
23 05:10 5.8 89 6.38 4.1 0 0 1024.4 0 15.2 25.0 35.0 91.4 78.6 267.9
23 05:00 5.3 88 6.1 3.5 0 6 1024.4 0 14.6 24.6 34.1 88.9 75.3 256.2
23 04:50 5.4 87 6.07 3.4 0 0 1024.4 0 14.5 24.6 33.9 88.5 74.8 254.4
23 04:40 5.4 90 6.28 3.9 0 4 1024.3 0 15.0 24.9 34.8 90.8 77.6 264.4
23 04:30 5.5 89 6.25 3.8 0 0 1024.3 0 14.9 24.8 34.6 90.3 77.1 262.7
23 04:20 5.8 89 6.38 4.1 0 0 1024.3 0 15.2 25.0 35.0 91.4 78.6 267.8
23 04:10 5.5 88 6.18 3.7 0 0 1024.3 0 14.8 24.7 34.3 89.5 76.2 259.3
23 04:00 5.7 89 6.34 4 0 0 1024.3 0 15.1 24.9 34.9 91.1 78.1 266.3
23 03:50 5.5 88 6.18 3.7 0 0 1024.2 0 14.8 24.7 34.3 89.5 76.2 259.3
23 03:40 5.9 87 6.28 3.9 0 0 1024.2 0 15.0 24.8 34.5 90.2 77.1 262.7
23 03:30 6.1 90 6.58 4.6 0 0 1024.2 0 15.6 25.2 35.7 93.3 81.0 276.4
23 03:20 6 88 6.39 4.2 0 0 1024.2 0 15.2 24.9 35.0 91.3 78.5 267.6
23 03:10 6.2 87 6.4 4.2 0 0 1024.3 0 15.2 24.9 34.9 91.2 78.5 267.4
23 03:00 6.4 84 6.26 3.9 0 0 1024.4 0 14.9 24.6 34.3 89.4 76.4 260.2
23 02:50 7.3 83 6.56 4.6 0 0 1024.4 0 15.5 24.8 35.1 91.6 79.5 271.3
23 02:40 8 81 6.7 4.9 6 6 1024.5 0 15.8 24.9 35.4 92.3 80.7 275.4
23 02:30 9.2 75 6.7 5 9 11 1024.5 0 15.7 24.5 34.8 91.0 79.4 271.3
23 02:20 9.6 75 6.87 5.4 9 11 1024.6 0 16.1 24.7 35.3 92.3 81.3 277.8
23 02:10 9.6 75 6.87 5.4 11 13 1024.6 0 16.1 24.7 35.3 92.3 81.3 277.8
23 02:00 9.6 76 6.96 5.6 11 13 1024.6 0 16.3 24.9 35.7 93.3 82.5 281.9
23 01:50 9.5 76 6.92 5.5 11 13 1024.5 0 16.2 24.8 35.6 93.0 82.0 280.4
23 01:40 9.7 75 6.92 5.5 11 13 1024.6 0 16.2 24.8 35.5 92.7 81.8 279.7
23 01:30 9.7 76 7.01 5.7 13 15 1024.6 0 16.4 24.9 35.9 93.7 83.0 283.9
23 01:20 9.7 76 7.01 5.7 13 13 1024.5 0 16.4 24.9 35.8 93.7 83.0 283.9
23 01:10 9.7 75 6.92 5.5 11 13 1024.6 0 16.2 24.8 35.5 92.7 81.8 279.7
23 01:00 9.8 76 7.05 5.8 11 11 1024.6 0 16.4 24.9 36.0 94.0 83.4 285.4
23 00:50 9.8 75 6.96 5.6 11 13 1024.5 0 16.3 24.8 35.6 93.0 82.2 281.2
23 00:40 10.3 73 6.99 5.7 9 11 1024.4 0 16.3 24.7 35.5 92.8 82.1 280.8
23 00:30 10.3 73 6.99 5.7 9 11 1024.5 0 16.3 24.7 35.5 92.8 82.1 280.8
23 00:20 10.3 73 6.99 5.7 9 11 1024.6 0 16.3 24.7 35.5 92.8 82.1 280.8
23 00:10 10.2 73 6.95 5.6 9 11 1024.6 0 16.2 24.7 35.4 92.5 81.7 279.3
23 00:00 10.1 74 7 5.7 9 9 1024.7 0 16.3 24.8 35.6 93.1 82.5 282.0
22 23:50 10.1 75 7.09 5.9 9 9 1024.7 0 16.5 24.9 36.0 94.1 83.7 286.2
22 23:40 9.5 77 7.01 5.7 7 9 1024.7 0 16.4 25.0 35.9 93.9 83.2 284.6
22 23:30 8.7 80 6.92 5.4 6 7 1024.7 0 16.2 25.0 35.9 93.9 82.9 283.3
22 23:20 8.7 82 7.09 5.8 7 9 1024.7 0 16.6 25.3 36.6 95.8 85.2 291.3
22 23:10 8.4 84 7.13 5.9 7 7 1024.7 0 16.7 25.5 36.9 96.6 86.0 294.3
22 23:00 7.4 84 6.68 4.9 4 9 1024.6 0 15.8 25.0 35.5 92.8 81.0 276.6
22 22:50 7.7 82 6.65 4.8 0 0 1024.6 0 15.7 24.9 35.3 92.2 80.3 274.2
22 22:40 7.7 82 6.65 4.8 0 0 1024.7 0 15.7 24.9 35.3 92.2 80.3 274.2
22 22:30 7.8 81 6.61 4.7 0 0 1024.7 0 15.6 24.8 35.1 91.6 79.7 272.0
22 22:20 7.8 81 6.61 4.7 0 0 1024.6 0 15.6 24.8 35.1 91.6 79.7 271.9
22 22:10 8.1 81 6.74 5 0 0 1024.6 0 15.9 24.9 35.5 92.7 81.1 277.0
22 22:00 8 79 6.53 4.6 4 6 1024.6 0 15.4 24.6 34.7 90.5 78.4 267.5
22 21:50 8.5 79 6.75 5.1 6 6 1024.5 0 15.9 24.8 35.3 92.3 80.8 276.0
22 21:40 9.1 78 6.92 5.5 0 0 1024.5 0 16.2 24.9 35.8 93.4 82.4 281.8
22 21:30 8.6 77 6.62 4.8 0 0 1024.5 0 15.6 24.6 34.8 90.8 79.0 269.6
22 21:20 8.8 77 6.7 5 0 0 1024.4 0 15.7 24.6 35.0 91.4 79.8 272.6
22 21:10 8.8 77 6.7 5 0 0 1024.4 0 15.7 24.6 35.0 91.4 79.8 272.6
22 21:00 9.3 75 6.74 5.1 2 6 1024.4 0 15.8 24.6 34.9 91.3 79.8 272.8
22 20:50 9.8 72 6.68 5 0 0 1024.3 0 15.7 24.3 34.5 90.0 78.5 268.3
22 20:40 10.9 67 6.67 5 6 6 1024.3 0 15.6 24.0 34.0 88.7 77.3 264.1
22 20:30 11.5 66 6.82 5.4 11 11 1024.3 0 15.9 24.1 34.3 89.6 78.7 268.9
22 20:20 11.4 65 6.67 5.1 9 11 1024.3 0 15.6 23.9 33.8 88.1 76.8 262.5
22 20:10 11.5 64 6.61 4.9 9 9 1024.3 0 15.4 23.8 33.5 87.4 76.0 259.4
22 20:00 11.6 64 6.65 5 9 9 1024.3 0 15.5 23.8 33.6 87.7 76.4 260.9
22 19:50 11.6 64 6.65 5 7 9 1024.3 0 15.5 23.8 33.6 87.7 76.4 260.9
22 19:40 11.8 62 6.53 4.8 9 11 1024.3 0 15.3 23.6 33.1 86.3 74.7 254.9
22 19:30 12 61 6.5 4.7 11 11 1024.2 0 15.2 23.5 32.9 85.7 74.1 252.9
22 19:20 12.1 61 6.54 4.8 11 13 1024.2 0 15.3 23.5 33.0 86.0 74.5 254.4
22 19:10 12.4 60 6.56 4.9 11 13 1024.2 0 15.3 23.5 32.9 85.9 74.5 254.3
22 19:00 12.7 59 6.57 4.9 11 19 1024.1 0 15.3 23.4 32.8 85.7 74.3 253.8
22 18:50 12.1 60 6.44 4.6 9 11 1024 0 15.1 23.3 32.6 85.0 73.2 249.9
22 18:40 12.8 57 6.39 4.5 9 11 1024 0 14.9 23.1 32.1 83.7 72.0 245.6
22 18:30 13.3 55 6.35 4.5 13 19 1023.9 0 14.8 22.9 31.8 82.8 71.0 242.3
22 18:20 13.2 55 6.32 4.4 11 13 1023.9 0 14.8 22.9 31.7 82.6 70.7 241.3
22 18:10 13.4 55 6.39 4.6 11 15 1023.8 0 14.9 22.9 31.9 83.1 71.4 243.7
22 18:00 13.6 54 6.36 4.5 13 17 1023.6 0 14.8 22.8 31.7 82.6 70.8 241.8
22 17:50 13.1 59 6.73 5.3 13 17 1023.5 0 15.6 23.5 33.3 86.8 75.9 259.4
22 17:40 13.1 55 6.28 4.3 9 9 1023.4 0 14.7 22.8 31.6 82.3 70.3 239.8
22 17:30 14.2 50 6.11 3.9 11 15 1023.3 0 14.3 22.3 30.5 79.5 67.3 229.3
22 17:20 14.6 47 5.88 3.4 9 11 1023.2 0 13.8 21.9 29.5 76.9 64.2 218.5
22 17:10 15 46 5.9 3.5 15 17 1023.1 0 13.8 21.8 29.5 76.7 64.1 218.3
22 17:00 15.3 45 5.88 3.5 15 22 1023.1 0 13.7 21.7 29.3 76.2 63.6 216.7
22 16:50 15.8 43 5.79 3.3 17 20 1023.1 0 13.5 21.5 28.8 74.9 62.2 211.6
22 16:40 16.1 44 6.03 3.9 17 20 1022.9 0 14.0 21.7 29.5 76.9 64.7 220.6

Last Refresh: 23-Jul-2024 08:52:22

Bureau of Meteorology